sensor_id;sensor_type;location;lat;lon;timestamp;temperature;humidity
67358;HTU21D;54240;51.096;5.878;2022-08-19T00:01:52;19.58;118.99
67358;HTU21D;54240;51.096;5.878;2022-08-19T00:04:22;19.53;118.99
67358;HTU21D;54240;51.096;5.878;2022-08-19T00:06:48;19.47;118.99
67358;HTU21D;54240;51.096;5.878;2022-08-19T00:09:17;19.41;118.99
67358;HTU21D;54240;51.096;5.878;2022-08-19T00:11:44;19.37;118.99
67358;HTU21D;54240;51.096;5.878;2022-08-19T00:14:14;19.32;118.99
67358;HTU21D;54240;51.096;5.878;2022-08-19T00:16:43;19.30;118.99
67358;HTU21D;54240;51.096;5.878;2022-08-19T00:19:10;19.29;118.99
67358;HTU21D;54240;51.096;5.878;2022-08-19T00:21:36;19.28;118.99
67358;HTU21D;54240;51.096;5.878;2022-08-19T00:24:10;19.26;118.99
67358;HTU21D;54240;51.096;5.878;2022-08-19T00:26:37;19.24;118.99
67358;HTU21D;54240;51.096;5.878;2022-08-19T00:29:05;19.21;118.99
67358;HTU21D;54240;51.096;5.878;2022-08-19T00:31:32;19.20;118.99
67358;HTU21D;54240;51.096;5.878;2022-08-19T00:33:57;19.17;118.99
67358;HTU21D;54240;51.096;5.878;2022-08-19T00:36:23;19.14;118.99
67358;HTU21D;54240;51.096;5.878;2022-08-19T00:38:49;19.13;118.99
67358;HTU21D;54240;51.096;5.878;2022-08-19T00:41:19;19.10;118.99
67358;HTU21D;54240;51.096;5.878;2022-08-19T00:46:25;18.99;118.99
67358;HTU21D;54240;51.096;5.878;2022-08-19T00:48:51;18.91;118.99
67358;HTU21D;54240;51.096;5.878;2022-08-19T00:51:17;18.83;118.99
67358;HTU21D;54240;51.096;5.878;2022-08-19T00:53:43;18.77;118.99
67358;HTU21D;54240;51.096;5.878;2022-08-19T00:56:09;18.71;118.99
67358;HTU21D;54240;51.096;5.878;2022-08-19T00:58:36;18.71;118.99
67358;HTU21D;54240;51.096;5.878;2022-08-19T01:01:04;18.69;118.99
67358;HTU21D;54240;51.096;5.878;2022-08-19T01:03:30;18.64;118.99
67358;HTU21D;54240;51.096;5.878;2022-08-19T01:05:56;18.63;118.99
67358;HTU21D;54240;51.096;5.878;2022-08-19T01:08:22;18.59;118.99
67358;HTU21D;54240;51.096;5.878;2022-08-19T01:10:55;18.56;118.99
67358;HTU21D;54240;51.096;5.878;2022-08-19T01:13:29;18.54;118.99
67358;HTU21D;54240;51.096;5.878;2022-08-19T01:16:03;18.53;118.99
67358;HTU21D;54240;51.096;5.878;2022-08-19T01:18:32;18.49;118.99
67358;HTU21D;54240;51.096;5.878;2022-08-19T01:21:08;18.43;118.99
67358;HTU21D;54240;51.096;5.878;2022-08-19T01:23:34;18.38;118.99
67358;HTU21D;54240;51.096;5.878;2022-08-19T01:26:21;18.33;118.99
67358;HTU21D;54240;51.096;5.878;2022-08-19T01:28:50;18.34;118.99
67358;HTU21D;54240;51.096;5.878;2022-08-19T01:31:20;18.27;118.99
67358;HTU21D;54240;51.096;5.878;2022-08-19T01:33:48;18.24;118.99
67358;HTU21D;54240;51.096;5.878;2022-08-19T01:36:41;18.22;118.99
67358;HTU21D;54240;51.096;5.878;2022-08-19T01:39:11;18.19;118.99
67358;HTU21D;54240;51.096;5.878;2022-08-19T01:41:37;18.15;118.99
67358;HTU21D;54240;51.096;5.878;2022-08-19T01:44:04;18.12;118.99
67358;HTU21D;54240;51.096;5.878;2022-08-19T01:46:31;18.05;118.99
67358;HTU21D;54240;51.096;5.878;2022-08-19T01:48:58;17.97;118.99
67358;HTU21D;54240;51.096;5.878;2022-08-19T01:51:24;17.91;118.99
67358;HTU21D;54240;51.096;5.878;2022-08-19T01:53:51;17.84;118.99
67358;HTU21D;54240;51.096;5.878;2022-08-19T01:56:19;17.81;118.99
67358;HTU21D;54240;51.096;5.878;2022-08-19T01:58:54;17.79;118.99
67358;HTU21D;54240;51.096;5.878;2022-08-19T02:01:21;17.80;118.99
67358;HTU21D;54240;51.096;5.878;2022-08-19T02:03:46;17.80;118.99
67358;HTU21D;54240;51.096;5.878;2022-08-19T02:06:13;17.83;118.99
67358;HTU21D;54240;51.096;5.878;2022-08-19T02:08:39;17.87;118.99
67358;HTU21D;54240;51.096;5.878;2022-08-19T02:11:06;17.91;118.99
67358;HTU21D;54240;51.096;5.878;2022-08-19T02:13:34;17.94;118.99
67358;HTU21D;54240;51.096;5.878;2022-08-19T02:16:00;17.95;118.99
67358;HTU21D;54240;51.096;5.878;2022-08-19T02:18:26;17.88;118.99
67358;HTU21D;54240;51.096;5.878;2022-08-19T02:20:52;17.79;118.99
67358;HTU21D;54240;51.096;5.878;2022-08-19T02:23:18;17.82;118.99
67358;HTU21D;54240;51.096;5.878;2022-08-19T02:25:46;17.85;118.99
67358;HTU21D;54240;51.096;5.878;2022-08-19T02:28:13;17.90;118.99
67358;HTU21D;54240;51.096;5.878;2022-08-19T02:30:41;17.91;118.99
67358;HTU21D;54240;51.096;5.878;2022-08-19T02:33:07;17.90;118.99
67358;HTU21D;54240;51.096;5.878;2022-08-19T02:35:33;17.90;118.99
67358;HTU21D;54240;51.096;5.878;2022-08-19T02:37:59;17.89;118.99
67358;HTU21D;54240;51.096;5.878;2022-08-19T02:40:51;17.85;118.99
67358;HTU21D;54240;51.096;5.878;2022-08-19T02:43:18;17.76;118.99
67358;HTU21D;54240;51.096;5.878;2022-08-19T02:45:46;17.80;118.99
67358;HTU21D;54240;51.096;5.878;2022-08-19T02:48:16;17.80;118.99
67358;HTU21D;54240;51.096;5.878;2022-08-19T02:50:43;17.79;118.99
67358;HTU21D;54240;51.096;5.878;2022-08-19T02:53:09;17.80;118.99
67358;HTU21D;54240;51.096;5.878;2022-08-19T02:55:35;17.76;118.99
67358;HTU21D;54240;51.096;5.878;2022-08-19T02:58:01;17.78;118.99
67358;HTU21D;54240;51.096;5.878;2022-08-19T03:00:27;17.77;118.99
67358;HTU21D;54240;51.096;5.878;2022-08-19T03:02:53;17.81;118.99
67358;HTU21D;54240;51.096;5.878;2022-08-19T03:05:19;17.84;118.99
67358;HTU21D;54240;51.096;5.878;2022-08-19T03:07:45;17.84;118.99
67358;HTU21D;54240;51.096;5.878;2022-08-19T03:10:12;17.84;118.99
67358;HTU21D;54240;51.096;5.878;2022-08-19T03:12:38;17.87;118.99
67358;HTU21D;54240;51.096;5.878;2022-08-19T03:15:06;17.89;118.99
67358;HTU21D;54240;51.096;5.878;2022-08-19T03:17:33;17.87;118.99
67358;HTU21D;54240;51.096;5.878;2022-08-19T03:19:59;17.84;118.99
67358;HTU21D;54240;51.096;5.878;2022-08-19T03:22:25;17.81;118.99
67358;HTU21D;54240;51.096;5.878;2022-08-19T03:24:51;17.76;118.99
67358;HTU21D;54240;51.096;5.878;2022-08-19T03:27:17;17.74;118.99
67358;HTU21D;54240;51.096;5.878;2022-08-19T03:29:43;17.75;118.99
67358;HTU21D;54240;51.096;5.878;2022-08-19T03:32:10;17.75;118.99
67358;HTU21D;54240;51.096;5.878;2022-08-19T03:34:37;17.73;118.99
67358;HTU21D;54240;51.096;5.878;2022-08-19T03:37:07;17.74;118.99
67358;HTU21D;54240;51.096;5.878;2022-08-19T03:39:36;17.68;118.99
67358;HTU21D;54240;51.096;5.878;2022-08-19T03:42:02;17.67;118.99
67358;HTU21D;54240;51.096;5.878;2022-08-19T03:44:29;17.67;118.99
67358;HTU21D;54240;51.096;5.878;2022-08-19T03:46:58;17.65;118.99
67358;HTU21D;54240;51.096;5.878;2022-08-19T03:49:27;17.64;118.99
67358;HTU21D;54240;51.096;5.878;2022-08-19T03:51:56;17.64;118.99
67358;HTU21D;54240;51.096;5.878;2022-08-19T03:54:24;17.61;118.99
67358;HTU21D;54240;51.096;5.878;2022-08-19T03:56:52;17.54;118.99
67358;HTU21D;54240;51.096;5.878;2022-08-19T03:59:23;17.56;118.99
67358;HTU21D;54240;51.096;5.878;2022-08-19T04:01:53;17.51;118.99
67358;HTU21D;54240;51.096;5.878;2022-08-19T04:04:19;17.51;118.99
67358;HTU21D;54240;51.096;5.878;2022-08-19T04:06:45;17.53;118.99
67358;HTU21D;54240;51.096;5.878;2022-08-19T04:09:13;17.54;118.99
67358;HTU21D;54240;51.096;5.878;2022-08-19T04:11:51;17.53;118.99
67358;HTU21D;54240;51.096;5.878;2022-08-19T04:14:22;17.53;118.99
67358;HTU21D;54240;51.096;5.878;2022-08-19T04:16:50;17.54;118.99
67358;HTU21D;54240;51.096;5.878;2022-08-19T04:19:19;17.51;118.99
67358;HTU21D;54240;51.096;5.878;2022-08-19T04:21:48;17.50;118.99
67358;HTU21D;54240;51.096;5.878;2022-08-19T04:24:15;17.45;118.99
67358;HTU21D;54240;51.096;5.878;2022-08-19T04:26:42;17.43;118.99
67358;HTU21D;54240;51.096;5.878;2022-08-19T04:29:12;17.40;118.99
67358;HTU21D;54240;51.096;5.878;2022-08-19T04:31:39;17.45;118.99
67358;HTU21D;54240;51.096;5.878;2022-08-19T04:34:08;17.51;118.99
67358;HTU21D;54240;51.096;5.878;2022-08-19T04:36:38;17.60;118.99
67358;HTU21D;54240;51.096;5.878;2022-08-19T04:39:13;17.64;118.99
67358;HTU21D;54240;51.096;5.878;2022-08-19T04:41:39;17.68;118.99
67358;HTU21D;54240;51.096;5.878;2022-08-19T04:44:24;17.73;118.99
67358;HTU21D;54240;51.096;5.878;2022-08-19T04:46:52;17.75;118.99
67358;HTU21D;54240;51.096;5.878;2022-08-19T04:49:21;17.79;118.99
67358;HTU21D;54240;51.096;5.878;2022-08-19T04:51:52;17.81;118.99
67358;HTU21D;54240;51.096;5.878;2022-08-19T04:54:21;17.79;118.99
67358;HTU21D;54240;51.096;5.878;2022-08-19T04:56:53;17.73;118.99
67358;HTU21D;54240;51.096;5.878;2022-08-19T04:59:19;17.68;118.99
67358;HTU21D;54240;51.096;5.878;2022-08-19T05:01:45;17.65;118.99
67358;HTU21D;54240;51.096;5.878;2022-08-19T05:04:19;17.64;118.99
67358;HTU21D;54240;51.096;5.878;2022-08-19T05:06:48;17.64;118.99
67358;HTU21D;54240;51.096;5.878;2022-08-19T05:09:15;17.61;118.99
67358;HTU21D;54240;51.096;5.878;2022-08-19T05:11:42;17.61;118.99
67358;HTU21D;54240;51.096;5.878;2022-08-19T05:14:09;17.59;118.99
67358;HTU21D;54240;51.096;5.878;2022-08-19T05:16:38;17.53;118.99
67358;HTU21D;54240;51.096;5.878;2022-08-19T05:19:04;17.49;118.99
67358;HTU21D;54240;51.096;5.878;2022-08-19T05:22:00;17.48;118.99
67358;HTU21D;54240;51.096;5.878;2022-08-19T05:24:44;17.46;118.99
67358;HTU21D;54240;51.096;5.878;2022-08-19T05:27:10;17.45;118.99
67358;HTU21D;54240;51.096;5.878;2022-08-19T05:29:36;17.50;118.99
67358;HTU21D;54240;51.096;5.878;2022-08-19T05:32:04;17.50;118.99
67358;HTU21D;54240;51.096;5.878;2022-08-19T05:34:37;17.53;118.99
67358;HTU21D;54240;51.096;5.878;2022-08-19T05:37:05;17.64;118.99
67358;HTU21D;54240;51.096;5.878;2022-08-19T05:39:33;17.70;118.99
67358;HTU21D;54240;51.096;5.878;2022-08-19T05:42:02;17.80;118.99
67358;HTU21D;54240;51.096;5.878;2022-08-19T05:44:31;17.81;118.99
67358;HTU21D;54240;51.096;5.878;2022-08-19T05:46:59;17.88;118.99
67358;HTU21D;54240;51.096;5.878;2022-08-19T05:49:26;17.95;118.99
67358;HTU21D;54240;51.096;5.878;2022-08-19T05:51:52;18.02;118.99
67358;HTU21D;54240;51.096;5.878;2022-08-19T05:54:21;18.09;118.99
67358;HTU21D;54240;51.096;5.878;2022-08-19T05:56:49;18.15;118.99
67358;HTU21D;54240;51.096;5.878;2022-08-19T05:59:16;18.21;118.99
67358;HTU21D;54240;51.096;5.878;2022-08-19T06:01:44;18.26;118.99
67358;HTU21D;54240;51.096;5.878;2022-08-19T06:04:12;18.37;118.99
67358;HTU21D;54240;51.096;5.878;2022-08-19T06:06:39;18.40;118.99
67358;HTU21D;54240;51.096;5.878;2022-08-19T06:09:07;18.46;118.99
67358;HTU21D;54240;51.096;5.878;2022-08-19T06:11:35;18.41;118.99
67358;HTU21D;54240;51.096;5.878;2022-08-19T06:14:08;18.41;118.99
67358;HTU21D;54240;51.096;5.878;2022-08-19T06:16:36;18.44;118.99
67358;HTU21D;54240;51.096;5.878;2022-08-19T06:19:11;18.55;118.99
67358;HTU21D;54240;51.096;5.878;2022-08-19T06:21:40;18.59;118.99
67358;HTU21D;54240;51.096;5.878;2022-08-19T06:24:11;18.65;118.99
67358;HTU21D;54240;51.096;5.878;2022-08-19T06:26:40;18.67;118.99
67358;HTU21D;54240;51.096;5.878;2022-08-19T06:29:08;18.84;118.99
67358;HTU21D;54240;51.096;5.878;2022-08-19T06:31:35;19.00;118.99
67358;HTU21D;54240;51.096;5.878;2022-08-19T06:34:04;19.27;118.99
67358;HTU21D;54240;51.096;5.878;2022-08-19T06:36:33;19.46;118.99
67358;HTU21D;54240;51.096;5.878;2022-08-19T06:39:24;19.63;118.99
67358;HTU21D;54240;51.096;5.878;2022-08-19T06:41:53;19.54;118.99
67358;HTU21D;54240;51.096;5.878;2022-08-19T06:44:22;19.71;118.99
67358;HTU21D;54240;51.096;5.878;2022-08-19T06:46:48;19.89;118.99
67358;HTU21D;54240;51.096;5.878;2022-08-19T06:49:16;20.03;118.99
67358;HTU21D;54240;51.096;5.878;2022-08-19T06:51:44;20.03;118.99
67358;HTU21D;54240;51.096;5.878;2022-08-19T06:54:10;20.15;118.99
67358;HTU21D;54240;51.096;5.878;2022-08-19T06:56:37;20.25;118.99
67358;HTU21D;54240;51.096;5.878;2022-08-19T06:59:07;20.06;118.99
67358;HTU21D;54240;51.096;5.878;2022-08-19T07:01:38;20.06;118.99
67358;HTU21D;54240;51.096;5.878;2022-08-19T07:04:08;20.20;118.99
67358;HTU21D;54240;51.096;5.878;2022-08-19T07:06:36;20.16;118.99
67358;HTU21D;54240;51.096;5.878;2022-08-19T07:09:07;20.02;118.99
67358;HTU21D;54240;51.096;5.878;2022-08-19T07:11:33;20.15;118.99
67358;HTU21D;54240;51.096;5.878;2022-08-19T07:14:00;20.27;118.99
67358;HTU21D;54240;51.096;5.878;2022-08-19T07:16:26;20.05;118.99
67358;HTU21D;54240;51.096;5.878;2022-08-19T07:18:54;19.91;118.99
67358;HTU21D;54240;51.096;5.878;2022-08-19T07:21:24;20.13;118.99
67358;HTU21D;54240;51.096;5.878;2022-08-19T07:23:54;20.32;118.99
67358;HTU21D;54240;51.096;5.878;2022-08-19T07:26:24;20.27;118.99
67358;HTU21D;54240;51.096;5.878;2022-08-19T07:28:51;20.27;118.99
67358;HTU21D;54240;51.096;5.878;2022-08-19T07:31:20;20.13;118.99
67358;HTU21D;54240;51.096;5.878;2022-08-19T07:33:49;20.31;118.99
67358;HTU21D;54240;51.096;5.878;2022-08-19T07:36:19;20.32;118.99
67358;HTU21D;54240;51.096;5.878;2022-08-19T07:38:47;20.39;118.99
67358;HTU21D;54240;51.096;5.878;2022-08-19T07:41:19;20.34;118.99
67358;HTU21D;54240;51.096;5.878;2022-08-19T07:43:47;20.48;118.99
67358;HTU21D;54240;51.096;5.878;2022-08-19T07:46:14;20.41;118.99
67358;HTU21D;54240;51.096;5.878;2022-08-19T07:48:43;20.57;118.99
67358;HTU21D;54240;51.096;5.878;2022-08-19T07:51:16;20.73;118.99
67358;HTU21D;54240;51.096;5.878;2022-08-19T07:53:42;21.13;118.99
67358;HTU21D;54240;51.096;5.878;2022-08-19T07:56:11;21.62;118.99
67358;HTU21D;54240;51.096;5.878;2022-08-19T07:58:40;21.90;118.99
67358;HTU21D;54240;51.096;5.878;2022-08-19T08:01:08;22.06;118.99
67358;HTU21D;54240;51.096;5.878;2022-08-19T08:03:36;0.00;118.99
67358;HTU21D;54240;51.096;5.878;2022-08-19T08:06:20;22.69;118.99
67358;HTU21D;54240;51.096;5.878;2022-08-19T08:09:06;22.93;118.99
67358;HTU21D;54240;51.096;5.878;2022-08-19T08:11:44;23.00;118.99
67358;HTU21D;54240;51.096;5.878;2022-08-19T08:14:18;23.17;118.99
67358;HTU21D;54240;51.096;5.878;2022-08-19T08:16:45;23.75;118.99
67358;HTU21D;54240;51.096;5.878;2022-08-19T08:19:12;23.94;118.99
67358;HTU21D;54240;51.096;5.878;2022-08-19T08:21:40;24.02;118.99
67358;HTU21D;54240;51.096;5.878;2022-08-19T08:24:06;24.31;118.99
67358;HTU21D;54240;51.096;5.878;2022-08-19T08:26:32;24.45;118.99
67358;HTU21D;54240;51.096;5.878;2022-08-19T08:28:58;24.54;118.99
67358;HTU21D;54240;51.096;5.878;2022-08-19T08:31:24;24.79;118.99
67358;HTU21D;54240;51.096;5.878;2022-08-19T08:33:50;24.39;118.99
67358;HTU21D;54240;51.096;5.878;2022-08-19T08:36:17;24.44;103.73
67358;HTU21D;54240;51.096;5.878;2022-08-19T08:38:44;24.58;118.99
67358;HTU21D;54240;51.096;5.878;2022-08-19T08:43:55;25.09;101.84
67358;HTU21D;54240;51.096;5.878;2022-08-19T08:46:38;25.10;98.58
67358;HTU21D;54240;51.096;5.878;2022-08-19T08:49:40;25.22;68.80
67358;HTU21D;54240;51.096;5.878;2022-08-19T08:52:16;25.38;63.37
67358;HTU21D;54240;51.096;5.878;2022-08-19T08:54:47;25.63;42.94
67358;HTU21D;54240;51.096;5.878;2022-08-19T08:57:23;25.93;24.20
67358;HTU21D;54240;51.096;5.878;2022-08-19T08:59:52;25.95;18.31
67358;HTU21D;54240;51.096;5.878;2022-08-19T09:02:20;25.79;2.44
67358;HTU21D;54240;51.096;5.878;2022-08-19T09:04:46;25.76;4.69
67358;HTU21D;54240;51.096;5.878;2022-08-19T09:09:45;24.95;34.92
67358;HTU21D;54240;51.096;5.878;2022-08-19T09:12:35;24.84;51.71
67358;HTU21D;54240;51.096;5.878;2022-08-19T09:15:08;24.65;34.46
67358;HTU21D;54240;51.096;5.878;2022-08-19T09:17:35;24.74;55.68
67358;HTU21D;54240;51.096;5.878;2022-08-19T09:20:04;24.84;46.36
67358;HTU21D;54240;51.096;5.878;2022-08-19T09:22:32;24.79;46.81
67358;HTU21D;54240;51.096;5.878;2022-08-19T09:24:59;25.05;41.31
67358;HTU21D;54240;51.096;5.878;2022-08-19T09:27:26;25.28;25.68
67358;HTU21D;54240;51.096;5.878;2022-08-19T09:29:53;25.63;-6.00
67358;HTU21D;54240;51.096;5.878;2022-08-19T09:32:20;26.20;-6.00
67358;HTU21D;54240;51.096;5.878;2022-08-19T09:34:46;26.37;-6.00
67358;HTU21D;54240;51.096;5.878;2022-08-19T09:37:12;26.65;-6.00
67358;HTU21D;54240;51.096;5.878;2022-08-19T09:39:39;27.14;-6.00
67358;HTU21D;54240;51.096;5.878;2022-08-19T09:42:07;27.22;-6.00
67358;HTU21D;54240;51.096;5.878;2022-08-19T09:44:38;27.05;-6.00
67358;HTU21D;54240;51.096;5.878;2022-08-19T09:47:04;26.98;-6.00
67358;HTU21D;54240;51.096;5.878;2022-08-19T09:49:30;27.07;-6.00
67358;HTU21D;54240;51.096;5.878;2022-08-19T09:51:57;26.97;-6.00
67358;HTU21D;54240;51.096;5.878;2022-08-19T09:54:23;27.13;-6.00
67358;HTU21D;54240;51.096;5.878;2022-08-19T09:56:49;26.68;-6.00
67358;HTU21D;54240;51.096;5.878;2022-08-19T09:59:15;26.10;-6.00
67358;HTU21D;54240;51.096;5.878;2022-08-19T10:01:41;25.84;-6.00
67358;HTU21D;54240;51.096;5.878;2022-08-19T10:04:07;26.03;-6.00
67358;HTU21D;54240;51.096;5.878;2022-08-19T10:06:36;26.23;-6.00
67358;HTU21D;54240;51.096;5.878;2022-08-19T10:09:04;26.62;-6.00
67358;HTU21D;54240;51.096;5.878;2022-08-19T10:11:33;27.00;-6.00
67358;HTU21D;54240;51.096;5.878;2022-08-19T10:13:59;27.16;-6.00
67358;HTU21D;54240;51.096;5.878;2022-08-19T10:16:25;27.66;-6.00
67358;HTU21D;54240;51.096;5.878;2022-08-19T10:18:52;27.94;-6.00
67358;HTU21D;54240;51.096;5.878;2022-08-19T10:21:22;28.06;-6.00
67358;HTU21D;54240;51.096;5.878;2022-08-19T10:23:50;28.00;-6.00
67358;HTU21D;54240;51.096;5.878;2022-08-19T10:26:20;28.46;-6.00
67358;HTU21D;54240;51.096;5.878;2022-08-19T10:28:46;28.75;-6.00
67358;HTU21D;54240;51.096;5.878;2022-08-19T10:31:20;28.79;-6.00
67358;HTU21D;54240;51.096;5.878;2022-08-19T10:33:48;28.16;-6.00
67358;HTU21D;54240;51.096;5.878;2022-08-19T10:36:19;28.31;-6.00
67358;HTU21D;54240;51.096;5.878;2022-08-19T10:38:49;28.37;-6.00
67358;HTU21D;54240;51.096;5.878;2022-08-19T10:41:19;28.73;-6.00
67358;HTU21D;54240;51.096;5.878;2022-08-19T10:43:45;28.48;-6.00
67358;HTU21D;54240;51.096;5.878;2022-08-19T10:46:15;28.29;-6.00
67358;HTU21D;54240;51.096;5.878;2022-08-19T10:48:42;28.44;-6.00
67358;HTU21D;54240;51.096;5.878;2022-08-19T10:51:09;28.38;-6.00
67358;HTU21D;54240;51.096;5.878;2022-08-19T10:53:54;28.24;-6.00
67358;HTU21D;54240;51.096;5.878;2022-08-19T10:56:21;28.86;-6.00
67358;HTU21D;54240;51.096;5.878;2022-08-19T10:59:06;29.27;-6.00
67358;HTU21D;54240;51.096;5.878;2022-08-19T11:01:34;29.82;-6.00
67358;HTU21D;54240;51.096;5.878;2022-08-19T11:04:01;29.80;-6.00
67358;HTU21D;54240;51.096;5.878;2022-08-19T11:06:27;29.74;-6.00
67358;HTU21D;54240;51.096;5.878;2022-08-19T11:08:54;30.24;-6.00
67358;HTU21D;54240;51.096;5.878;2022-08-19T11:11:21;30.18;-6.00
67358;HTU21D;54240;51.096;5.878;2022-08-19T11:13:48;30.08;-6.00
67358;HTU21D;54240;51.096;5.878;2022-08-19T11:16:19;30.63;-6.00
67358;HTU21D;54240;51.096;5.878;2022-08-19T11:18:52;31.25;-6.00
67358;HTU21D;54240;51.096;5.878;2022-08-19T11:21:32;31.76;-6.00
67358;HTU21D;54240;51.096;5.878;2022-08-19T11:24:01;31.57;-6.00
67358;HTU21D;54240;51.096;5.878;2022-08-19T11:26:28;30.68;-6.00
67358;HTU21D;54240;51.096;5.878;2022-08-19T11:28:56;30.09;-6.00
67358;HTU21D;54240;51.096;5.878;2022-08-19T11:31:26;29.76;-6.00
67358;HTU21D;54240;51.096;5.878;2022-08-19T11:33:53;30.52;-6.00
67358;HTU21D;54240;51.096;5.878;2022-08-19T11:36:21;31.00;-6.00
67358;HTU21D;54240;51.096;5.878;2022-08-19T11:38:49;30.79;-6.00
67358;HTU21D;54240;51.096;5.878;2022-08-19T11:41:17;30.65;-6.00
67358;HTU21D;54240;51.096;5.878;2022-08-19T11:43:44;30.93;-6.00
67358;HTU21D;54240;51.096;5.878;2022-08-19T11:46:13;31.57;-6.00
67358;HTU21D;54240;51.096;5.878;2022-08-19T11:48:39;31.65;-6.00
67358;HTU21D;54240;51.096;5.878;2022-08-19T11:51:09;31.72;-6.00
67358;HTU21D;54240;51.096;5.878;2022-08-19T11:53:38;31.88;-6.00
67358;HTU21D;54240;51.096;5.878;2022-08-19T11:56:05;30.97;-6.00
67358;HTU21D;54240;51.096;5.878;2022-08-19T11:58:32;30.31;-6.00
67358;HTU21D;54240;51.096;5.878;2022-08-19T12:00:58;29.48;-6.00
67358;HTU21D;54240;51.096;5.878;2022-08-19T12:03:24;29.62;-6.00
67358;HTU21D;54240;51.096;5.878;2022-08-19T12:05:50;29.39;-6.00
67358;HTU21D;54240;51.096;5.878;2022-08-19T12:08:17;29.81;-6.00
67358;HTU21D;54240;51.096;5.878;2022-08-19T12:10:44;29.95;-6.00
67358;HTU21D;54240;51.096;5.878;2022-08-19T12:13:12;29.71;-6.00
67358;HTU21D;54240;51.096;5.878;2022-08-19T12:15:47;29.90;-6.00
67358;HTU21D;54240;51.096;5.878;2022-08-19T12:18:13;29.97;-6.00
67358;HTU21D;54240;51.096;5.878;2022-08-19T12:20:43;29.91;-6.00
67358;HTU21D;54240;51.096;5.878;2022-08-19T12:23:10;30.17;-6.00
67358;HTU21D;54240;51.096;5.878;2022-08-19T12:25:42;30.08;-6.00
67358;HTU21D;54240;51.096;5.878;2022-08-19T12:28:09;29.94;-6.00
67358;HTU21D;54240;51.096;5.878;2022-08-19T12:30:37;29.65;-6.00
67358;HTU21D;54240;51.096;5.878;2022-08-19T12:33:03;29.67;-6.00
67358;HTU21D;54240;51.096;5.878;2022-08-19T12:35:29;29.80;-6.00
67358;HTU21D;54240;51.096;5.878;2022-08-19T12:37:56;30.00;-6.00
67358;HTU21D;54240;51.096;5.878;2022-08-19T12:40:22;29.50;-6.00
67358;HTU21D;54240;51.096;5.878;2022-08-19T12:42:47;28.98;-6.00
67358;HTU21D;54240;51.096;5.878;2022-08-19T12:45:16;28.63;-6.00
67358;HTU21D;54240;51.096;5.878;2022-08-19T12:47:42;28.44;-6.00
67358;HTU21D;54240;51.096;5.878;2022-08-19T12:50:08;28.67;-6.00
67358;HTU21D;54240;51.096;5.878;2022-08-19T12:52:37;28.97;-6.00
67358;HTU21D;54240;51.096;5.878;2022-08-19T12:55:06;28.45;-6.00
67358;HTU21D;54240;51.096;5.878;2022-08-19T12:57:32;28.38;-6.00
67358;HTU21D;54240;51.096;5.878;2022-08-19T13:00:05;27.85;-6.00
67358;HTU21D;54240;51.096;5.878;2022-08-19T13:02:37;27.55;-6.00
67358;HTU21D;54240;51.096;5.878;2022-08-19T13:05:03;28.01;-6.00
67358;HTU21D;54240;51.096;5.878;2022-08-19T13:07:31;28.42;-6.00
67358;HTU21D;54240;51.096;5.878;2022-08-19T13:09:57;28.43;-6.00
67358;HTU21D;54240;51.096;5.878;2022-08-19T13:12:23;28.21;-6.00
67358;HTU21D;54240;51.096;5.878;2022-08-19T13:14:53;28.11;-6.00
67358;HTU21D;54240;51.096;5.878;2022-08-19T13:17:20;28.06;-6.00
67358;HTU21D;54240;51.096;5.878;2022-08-19T13:19:46;28.03;-6.00
67358;HTU21D;54240;51.096;5.878;2022-08-19T13:22:12;28.00;-6.00
67358;HTU21D;54240;51.096;5.878;2022-08-19T13:24:38;27.65;-6.00
67358;HTU21D;54240;51.096;5.878;2022-08-19T13:27:04;27.60;-6.00
67358;HTU21D;54240;51.096;5.878;2022-08-19T13:29:30;26.96;-6.00
67358;HTU21D;54240;51.096;5.878;2022-08-19T13:32:14;27.74;-6.00
67358;HTU21D;54240;51.096;5.878;2022-08-19T13:34:59;28.09;-6.00
67358;HTU21D;54240;51.096;5.878;2022-08-19T13:37:25;28.02;-6.00
67358;HTU21D;54240;51.096;5.878;2022-08-19T13:40:13;27.83;-6.00
67358;HTU21D;54240;51.096;5.878;2022-08-19T13:42:46;27.72;-6.00
67358;HTU21D;54240;51.096;5.878;2022-08-19T13:45:13;27.75;-6.00
67358;HTU21D;54240;51.096;5.878;2022-08-19T13:47:41;27.83;-6.00
67358;HTU21D;54240;51.096;5.878;2022-08-19T13:50:11;28.41;-6.00
67358;HTU21D;54240;51.096;5.878;2022-08-19T13:52:39;28.78;-6.00
67358;HTU21D;54240;51.096;5.878;2022-08-19T13:55:07;28.06;-6.00
67358;HTU21D;54240;51.096;5.878;2022-08-19T13:57:33;27.66;-6.00
67358;HTU21D;54240;51.096;5.878;2022-08-19T14:00:00;27.85;-6.00
67358;HTU21D;54240;51.096;5.878;2022-08-19T14:02:30;27.78;-6.00
67358;HTU21D;54240;51.096;5.878;2022-08-19T14:04:56;28.13;-6.00
67358;HTU21D;54240;51.096;5.878;2022-08-19T14:07:21;28.21;-6.00
67358;HTU21D;54240;51.096;5.878;2022-08-19T14:09:50;28.12;-6.00
67358;HTU21D;54240;51.096;5.878;2022-08-19T14:12:19;28.37;-6.00
67358;HTU21D;54240;51.096;5.878;2022-08-19T14:14:46;28.33;-6.00
67358;HTU21D;54240;51.096;5.878;2022-08-19T14:17:12;27.96;-6.00
67358;HTU21D;54240;51.096;5.878;2022-08-19T14:19:37;27.98;-6.00
67358;HTU21D;54240;51.096;5.878;2022-08-19T14:22:03;28.18;-6.00
67358;HTU21D;54240;51.096;5.878;2022-08-19T14:24:31;28.30;-6.00
67358;HTU21D;54240;51.096;5.878;2022-08-19T14:26:59;27.81;-6.00
67358;HTU21D;54240;51.096;5.878;2022-08-19T14:29:26;27.52;-6.00
67358;HTU21D;54240;51.096;5.878;2022-08-19T14:31:54;27.51;-6.00
67358;HTU21D;54240;51.096;5.878;2022-08-19T14:34:21;27.58;-6.00
67358;HTU21D;54240;51.096;5.878;2022-08-19T14:36:47;27.61;-6.00
67358;HTU21D;54240;51.096;5.878;2022-08-19T14:39:13;27.29;-6.00
67358;HTU21D;54240;51.096;5.878;2022-08-19T14:41:40;27.78;-6.00
67358;HTU21D;54240;51.096;5.878;2022-08-19T14:44:07;27.60;-6.00
67358;HTU21D;54240;51.096;5.878;2022-08-19T14:46:35;27.60;-6.00
67358;HTU21D;54240;51.096;5.878;2022-08-19T14:49:01;27.68;-6.00
67358;HTU21D;54240;51.096;5.878;2022-08-19T14:51:27;27.93;-6.00
67358;HTU21D;54240;51.096;5.878;2022-08-19T14:53:54;27.97;-6.00
67358;HTU21D;54240;51.096;5.878;2022-08-19T14:56:24;28.10;-6.00
67358;HTU21D;54240;51.096;5.878;2022-08-19T14:58:51;27.88;-6.00
67358;HTU21D;54240;51.096;5.878;2022-08-19T15:01:19;28.10;-6.00
67358;HTU21D;54240;51.096;5.878;2022-08-19T15:03:48;28.25;-6.00
67358;HTU21D;54240;51.096;5.878;2022-08-19T15:06:15;27.98;-6.00
67358;HTU21D;54240;51.096;5.878;2022-08-19T15:08:42;27.93;-6.00
67358;HTU21D;54240;51.096;5.878;2022-08-19T15:11:10;27.70;-6.00
67358;HTU21D;54240;51.096;5.878;2022-08-19T15:13:37;27.97;-6.00
67358;HTU21D;54240;51.096;5.878;2022-08-19T15:16:03;28.19;-6.00
67358;HTU21D;54240;51.096;5.878;2022-08-19T15:18:29;28.44;-6.00
67358;HTU21D;54240;51.096;5.878;2022-08-19T15:20:55;28.71;-6.00
67358;HTU21D;54240;51.096;5.878;2022-08-19T15:23:22;28.97;-6.00
67358;HTU21D;54240;51.096;5.878;2022-08-19T15:25:49;29.12;-6.00